Time;durP1;ratioP1;P1;durP2;ratioP2;P2;SDS_P1;SDS_P2;PMS_P1;PMS_P2;Temp;Humidity;BMP_temperature;BMP_pressure;BME280_temperature;BME280_humidity;BME280_pressure;Samples;Min_cycle;Max_cycle;Signal;HPM_P1;HPM_P2
2021/11/22 00:00:32;;;;;;;;;6.00;6.00;;;;;9.47;64.08;101168.00;2091128;28;46891;-63
2021/11/22 00:01:35;;;;;;;;;6.00;6.00;;;;;9.47;64.01;101159.16;2087743;28;46929;-65
2021/11/22 00:02:36;;;;;;;;;10.00;7.80;;;;;9.47;64.15;101157.38;2088599;28;47162;-65
2021/11/22 00:03:38;;;;;;;;;5.33;5.33;;;;;9.47;64.21;101162.69;2097458;28;47028;-64
2021/11/22 00:04:38;;;;;;;;;7.00;7.00;;;;;9.48;64.11;101158.25;2091999;27;47612;-64
2021/11/22 00:05:39;;;;;;;;;10.67;8.00;;;;;9.47;64.19;101156.50;2092239;28;45396;-64
2021/11/22 00:06:40;;;;;;;;;8.00;8.00;;;;;9.46;63.96;101157.41;2091464;28;46683;-65
2021/11/22 00:07:41;;;;;;;;;6.67;6.67;;;;;9.46;64.15;101160.06;2092448;28;47254;-64
2021/11/22 00:08:42;;;;;;;;;5.80;5.80;;;;;9.46;64.06;101165.34;2088143;27;45366;-65
2021/11/22 00:09:44;;;;;;;;;6.00;6.00;;;;;9.46;64.16;101165.34;2088312;28;47414;-65
2021/11/22 00:10:45;;;;;;;;;7.00;6.80;;;;;9.45;63.97;101164.47;2102155;27;47351;-65
2021/11/22 00:11:45;;;;;;;;;6.67;6.67;;;;;9.44;64.16;101157.44;2099250;27;48405;-65
2021/11/22 00:12:47;;;;;;;;;8.33;6.33;;;;;9.44;63.84;101158.31;2099551;27;47008;-64
2021/11/22 00:13:47;;;;;;;;;8.25;6.75;;;;;9.42;64.09;101165.41;2099381;28;47220;-65
2021/11/22 00:14:48;;;;;;;;;4.67;4.67;;;;;9.43;63.98;101163.63;2096961;28;46219;-65
2021/11/22 00:15:51;;;;;;;;;6.67;6.67;;;;;9.42;64.20;101170.69;2094507;27;47291;-65
2021/11/22 00:16:51;;;;;;;;;7.50;7.00;;;;;9.43;64.17;101168.91;2099285;27;48283;-63
2021/11/22 00:17:52;;;;;;;;;9.00;7.33;;;;;9.42;64.00;101173.34;2094766;28;47062;-64
2021/11/22 00:18:54;;;;;;;;;8.33;7.00;;;;;9.42;64.27;101170.69;2090844;28;48329;-63
2021/11/22 00:19:55;;;;;;;;;7.50;7.50;;;;;9.42;64.07;101170.69;2099325;28;45347;-63
2021/11/22 00:20:55;;;;;;;;;9.67;9.33;;;;;9.42;64.27;101165.41;2093869;27;47203;-63
2021/11/22 00:21:56;;;;;;;;;7.00;7.00;;;;;9.42;63.88;101169.81;2096031;27;47424;-63
2021/11/22 00:22:57;;;;;;;;;6.33;5.33;;;;;9.41;64.15;101168.94;2097023;28;47375;-64
2021/11/22 00:23:57;;;;;;;;;7.00;7.00;;;;;9.41;63.76;101168.94;2085174;28;47090;-65
2021/11/22 00:24:57;;;;;;;;;6.67;6.67;;;;;9.41;64.23;101165.41;2089183;28;48136;-65
2021/11/22 00:25:58;;;;;;;;;8.33;8.00;;;;;9.41;64.20;101168.06;2103592;27;46876;-65
2021/11/22 00:26:59;;;;;;;;;5.00;4.00;;;;;9.41;64.22;101168.94;2097010;28;48050;-65
2021/11/22 00:28:00;;;;;;;;;7.50;5.25;;;;;9.40;63.97;101169.84;2099084;27;47345;-65
2021/11/22 00:29:00;;;;;;;;;10.25;8.25;;;;;9.40;64.03;101172.47;2107380;27;47367;-65
2021/11/22 00:30:01;;;;;;;;;9.33;7.00;;;;;9.39;64.15;101175.13;2091456;28;45757;-64
2021/11/22 00:31:01;;;;;;;;;11.00;9.00;;;;;9.37;63.92;101167.19;2097299;28;46053;-65
2021/11/22 00:32:04;;;;;;;;;8.00;6.33;;;;;9.39;64.32;101164.53;2084917;28;48289;-65
2021/11/22 00:33:05;;;;;;;;;7.75;6.00;;;;;9.37;64.05;101167.19;2088911;28;48502;-64
2021/11/22 00:34:06;;;;;;;;;6.67;6.67;;;;;9.36;63.76;101168.09;2091518;28;45927;-65
2021/11/22 00:35:07;;;;;;;;;7.00;6.00;;;;;9.35;64.22;101168.97;2092655;27;47951;-65
2021/11/22 00:36:13;;;;;;;;;6.60;4.60;;;;;9.35;63.97;101170.75;2089512;28;45817;-65
2021/11/22 00:37:24;;;;;;;;;7.00;6.00;;;;;9.36;64.03;101170.72;2098776;28;48282;-64
2021/11/22 00:38:25;;;;;;;;;7.00;6.75;;;;;9.36;64.29;101173.38;2089657;28;47538;-64
2021/11/22 00:39:25;;;;;;;;;6.00;6.00;;;;;9.35;63.75;101173.41;2082264;28;48163;-65
2021/11/22 00:40:26;;;;;;;;;10.00;7.00;;;;;9.34;64.02;101174.28;2091434;28;47067;-63
2021/11/22 00:41:30;;;;;;;;;5.75;4.75;;;;;9.34;64.08;101179.59;2090792;28;46375;-64
2021/11/22 00:42:31;;;;;;;;;11.00;8.25;;;;;9.33;63.96;101176.06;2091260;28;47187;-64
2021/11/22 00:43:31;;;;;;;;;8.67;7.00;;;;;9.32;63.94;101176.09;2090503;28;47233;-65
2021/11/22 00:44:32;;;;;;;;;12.50;10.75;;;;;9.32;63.89;101176.97;2085934;28;48286;-64
2021/11/22 00:45:33;;;;;;;;;6.75;6.75;;;;;9.33;64.06;101188.44;2090935;28;47324;-64
2021/11/22 00:46:34;;;;;;;;;6.75;6.75;;;;;9.31;64.14;101183.16;2091428;28;48346;-65
2021/11/22 00:47:36;;;;;;;;;6.33;6.33;;;;;9.31;63.95;101182.28;2091017;28;47231;-65
2021/11/22 00:48:36;;;;;;;;;9.20;8.00;;;;;9.30;64.02;101183.19;2091290;28;46943;-65
2021/11/22 00:49:37;;;;;;;;;10.67;10.00;;;;;9.31;63.97;101187.56;2091214;28;48246;-65
2021/11/22 00:50:37;;;;;;;;;7.67;7.67;;;;;9.29;64.02;101184.94;2091492;28;47453;-64
2021/11/22 00:51:38;;;;;;;;;8.50;8.50;;;;;9.29;63.91;101187.59;2090711;28;47425;-65
2021/11/22 00:52:38;;;;;;;;;13.00;12.00;;;;;9.29;64.08;101187.59;2089597;28;46030;-64
2021/11/22 00:53:39;;;;;;;;;9.25;9.25;;;;;9.28;63.78;101179.66;2092972;28;48957;-64
2021/11/22 00:54:39;;;;;;;;;8.33;7.00;;;;;9.28;64.05;101190.25;2082435;28;48249;-64
2021/11/22 00:55:40;;;;;;;;;7.67;6.67;;;;;9.27;64.15;101186.69;2084215;28;46667;-63
2021/11/22 00:56:41;;;;;;;;;12.00;10.25;;;;;9.27;64.09;101194.66;2095686;27;47126;-64
2021/11/22 00:57:41;;;;;;;;;9.00;9.00;;;;;9.26;64.05;101192.88;2090884;28;47413;-64
2021/11/22 00:58:44;;;;;;;;;9.33;5.67;;;;;9.26;64.02;101200.84;2081465;28;47995;-63
2021/11/22 00:59:44;;;;;;;;;7.40;6.00;;;;;9.26;64.00;101190.25;2093113;27;45456;-65
2021/11/22 01:00:45;;;;;;;;;9.50;9.00;;;;;9.27;63.93;101202.59;2090340;28;47701;-65
2021/11/22 01:01:47;;;;;;;;;8.33;7.33;;;;;9.25;64.09;101195.56;2090487;28;48162;-64
2021/11/22 01:02:47;;;;;;;;;7.00;6.00;;;;;9.25;63.97;101195.56;2107288;27;47224;-65
2021/11/22 01:03:48;;;;;;;;;7.00;6.00;;;;;9.25;64.04;101195.56;2107442;27;48040;-64
2021/11/22 01:04:48;;;;;;;;;6.00;5.33;;;;;9.25;63.82;101203.50;2090947;27;47165;-64
2021/11/22 01:05:49;;;;;;;;;11.50;9.25;;;;;9.23;63.88;101192.06;2099026;28;48055;-64
2021/11/22 01:06:50;;;;;;;;;7.50;7.00;;;;;9.23;64.07;101194.69;2095591;28;45367;-65
2021/11/22 01:07:50;;;;;;;;;9.33;9.33;;;;;9.21;64.07;101200.00;2090294;28;46056;-65
2021/11/22 01:08:51;;;;;;;;;10.67;9.00;;;;;9.22;63.92;101196.47;2095130;28;47011;-64
2021/11/22 01:09:51;;;;;;;;;11.00;7.00;;;;;9.21;64.21;101196.47;2086326;28;49188;-65
2021/11/22 01:10:52;;;;;;;;;7.25;7.00;;;;;9.22;64.08;101203.53;2091776;28;47424;-65
2021/11/22 01:11:52;;;;;;;;;9.00;9.00;;;;;9.22;63.97;101195.59;2093360;28;47165;-65
2021/11/22 01:12:53;;;;;;;;;7.00;7.00;;;;;9.21;64.00;101196.47;2090641;28;47427;-64
2021/11/22 01:13:54;;;;;;;;;7.00;7.00;;;;;9.20;63.83;101203.56;2090319;28;46911;-65
2021/11/22 01:14:59;;;;;;;;;9.33;8.00;;;;;9.20;64.12;101200.91;2087958;28;48394;-64
2021/11/22 01:15:59;;;;;;;;;12.00;8.60;;;;;9.20;64.06;101207.97;2098824;27;48083;-64
2021/11/22 01:17:00;;;;;;;;;11.00;11.00;;;;;9.19;63.92;101209.75;2097849;28;47235;-63
2021/11/22 01:18:01;;;;;;;;;7.00;5.75;;;;;9.19;63.92;101212.38;2098322;28;46145;-64
2021/11/22 01:19:04;;;;;;;;;7.75;7.75;;;;;9.20;64.15;101207.97;2087485;27;47093;-64
2021/11/22 01:20:06;;;;;;;;;6.50;6.50;;;;;9.20;63.81;101213.28;2091588;28;47834;-64
2021/11/22 01:21:07;;;;;;;;;10.50;8.50;;;;;9.19;64.01;101211.50;2086426;28;47453;-64
2021/11/22 01:22:07;;;;;;;;;10.00;10.00;;;;;9.19;64.05;101217.69;2092276;27;48186;-64
2021/11/22 01:23:11;;;;;;;;;10.33;8.33;;;;;9.19;63.88;101216.81;2096492;28;47623;-64
2021/11/22 01:24:12;;;;;;;;;8.75;8.75;;;;;9.18;63.87;101210.63;2099184;27;45343;-64
2021/11/22 01:25:14;;;;;;;;;8.67;6.33;;;;;9.18;64.03;101210.63;2100818;28;45275;-64
2021/11/22 01:26:14;;;;;;;;;9.50;9.50;;;;;9.19;64.10;101212.38;2091862;28;46857;-64
2021/11/22 01:27:15;;;;;;;;;10.67;8.67;;;;;9.18;64.00;101215.06;2083947;28;46769;-64
2021/11/22 01:28:16;;;;;;;;;8.75;8.00;;;;;9.18;63.93;101215.06;2098936;28;48365;-64
2021/11/22 01:29:16;;;;;;;;;8.67;7.67;;;;;9.17;63.77;101216.81;2089583;28;48625;-64
2021/11/22 01:30:17;;;;;;;;;9.67;7.33;;;;;9.17;63.67;101213.31;2091856;28;47947;-64
2021/11/22 01:31:18;;;;;;;;;9.75;9.25;;;;;9.18;63.75;101215.06;2085968;28;46877;-64
2021/11/22 01:32:18;;;;;;;;;6.25;6.00;;;;;9.17;63.98;101213.31;2089072;28;46921;-64
2021/11/22 01:33:19;;;;;;;;;10.67;9.00;;;;;9.16;63.76;101219.50;2093117;27;46706;-64
2021/11/22 01:34:20;;;;;;;;;10.67;7.67;;;;;9.15;64.05;101218.63;2096080;28;47315;-64
2021/11/22 01:35:22;;;;;;;;;8.33;7.00;;;;;9.14;63.71;101215.06;2099267;27;46006;-64
2021/11/22 01:36:24;;;;;;;;;9.75;8.25;;;;;9.13;63.94;101215.94;2098188;28;45482;-64
2021/11/22 01:37:24;;;;;;;;;11.25;10.25;;;;;9.13;63.94;101218.59;2098061;28;47312;-65
2021/11/22 01:38:25;;;;;;;;;11.00;10.00;;;;;9.13;63.73;101225.66;2100789;27;47293;-64
2021/11/22 01:39:26;;;;;;;;;7.50;7.00;;;;;9.12;63.69;101210.66;2098682;27;47227;-64
2021/11/22 01:40:27;;;;;;;;;11.33;9.67;;;;;9.11;63.74;101222.16;2098663;27;46545;-64
2021/11/22 01:41:28;;;;;;;;;7.00;7.00;;;;;9.10;63.76;101221.28;2100597;27;47208;-65
2021/11/22 01:42:28;;;;;;;;;4.00;3.00;;;;;9.10;63.83;101225.69;2096106;27;47758;-64
2021/11/22 01:43:30;;;;;;;;;6.67;6.67;;;;;9.09;63.94;101221.28;2086247;28;48171;-65
2021/11/22 01:44:30;;;;;;;;;8.25;8.25;;;;;9.09;64.07;101221.28;2094010;28;45478;-65
2021/11/22 01:45:33;;;;;;;;;9.33;6.67;;;;;9.07;63.73;101221.31;2090794;27;47917;-65
2021/11/22 01:46:34;;;;;;;;;8.75;6.75;;;;;9.09;63.69;101226.59;2092380;28;47145;-66
2021/11/22 01:47:35;;;;;;;;;7.00;7.00;;;;;9.09;63.88;101223.94;2093709;28;47364;-65
2021/11/22 01:48:35;;;;;;;;;9.00;9.00;;;;;9.07;63.73;101217.78;2092367;28;47538;-64
2021/11/22 01:49:35;;;;;;;;;10.00;10.00;;;;;9.07;63.86;101220.44;2087605;27;47410;-65
2021/11/22 01:50:36;;;;;;;;;9.33;7.67;;;;;9.06;63.89;101224.84;2093287;28;45945;-64
2021/11/22 01:51:37;;;;;;;;;11.50;9.75;;;;;9.07;63.83;101226.59;2099807;27;45537;-64
2021/11/22 01:52:39;;;;;;;;;7.33;7.00;;;;;9.07;63.69;101231.03;2089843;27;48193;-64
2021/11/22 01:53:40;;;;;;;;;6.75;6.75;;;;;9.06;63.99;101223.97;2092493;27;48283;-64
2021/11/22 01:54:40;;;;;;;;;9.00;8.67;;;;;9.05;63.71;101222.22;2098165;27;48084;-64
2021/11/22 01:55:42;;;;;;;;;7.00;6.00;;;;;9.05;63.66;101232.81;2097025;27;48428;-65
2021/11/22 01:56:45;;;;;;;;;10.00;7.00;;;;;9.04;63.91;101236.34;2098220;28;47534;-64
2021/11/22 01:57:48;;;;;;;;;6.75;6.50;;;;;9.02;63.80;101228.41;2088811;28;47304;-64
2021/11/22 01:58:49;;;;;;;;;7.50;7.25;;;;;9.04;63.69;101236.34;2085998;27;47209;-65
2021/11/22 01:59:50;;;;;;;;;7.50;7.25;;;;;9.02;63.81;101233.72;2100373;27;47361;-65
2021/11/22 02:00:54;;;;;;;;;10.00;7.67;;;;;9.03;63.77;101234.59;2089934;28;47096;-64
2021/11/22 02:01:54;;;;;;;;;5.50;5.00;;;;;9.02;63.80;101241.66;2088388;28;48258;-64
2021/11/22 02:02:56;;;;;;;;;8.67;7.00;;;;;9.01;63.75;101239.88;2095942;28;47344;-64
2021/11/22 02:03:57;;;;;;;;;2.00;2.00;;;;;9.01;63.72;101241.63;2091940;28;47948;-64
2021/11/22 02:04:57;;;;;;;;;11.00;7.00;;;;;9.02;63.65;101238.09;2091585;28;48576;-64
2021/11/22 02:05:58;;;;;;;;;6.33;6.00;;;;;9.00;63.75;101237.22;2098869;28;47339;-64
2021/11/22 02:06:59;;;;;;;;;10.25;8.25;;;;;9.00;63.71;101237.22;2096435;27;48279;-64
2021/11/22 02:08:00;;;;;;;;;10.00;7.00;;;;;9.00;63.58;101243.41;2099767;27;47523;-64
2021/11/22 02:09:03;;;;;;;;;7.00;6.50;;;;;9.00;63.81;101242.53;2093665;28;47341;-64
2021/11/22 02:10:05;;;;;;;;;6.00;5.50;;;;;8.99;63.71;101236.34;2104890;27;47888;-64
2021/11/22 02:11:06;;;;;;;;;6.50;5.25;;;;;8.99;63.74;101239.00;2097624;28;47174;-65
2021/11/22 02:12:07;;;;;;;;;8.33;8.33;;;;;9.01;63.85;101249.56;2086967;28;47388;-64
2021/11/22 02:13:07;;;;;;;;;10.25;7.50;;;;;8.99;63.70;101246.06;2097163;28;47098;-64
2021/11/22 02:14:08;;;;;;;;;9.00;6.33;;;;;9.00;63.78;101250.47;2099644;28;47097;-64
2021/11/22 02:15:11;;;;;;;;;6.67;6.67;;;;;9.00;63.80;101246.06;2096662;27;48139;-65
2021/11/22 02:16:12;;;;;;;;;8.25;6.75;;;;;8.99;63.62;101241.66;2099215;28;45266;-64
2021/11/22 02:17:12;;;;;;;;;9.33;7.33;;;;;8.99;64.10;101246.06;2092534;28;45480;-64
2021/11/22 02:18:13;;;;;;;;;5.00;5.00;;;;;8.99;63.67;101243.41;2090326;28;48512;-64
2021/11/22 02:19:14;;;;;;;;;9.25;6.50;;;;;8.98;63.63;101254.91;2099822;28;47477;-65
2021/11/22 02:20:20;;;;;;;;;9.67;7.00;;;;;8.97;63.80;101254.03;2096237;28;46010;-65
2021/11/22 02:21:21;;;;;;;;;7.25;6.50;;;;;8.96;63.64;101257.56;2096981;27;47335;-65
2021/11/22 02:22:22;;;;;;;;;7.75;7.75;;;;;8.96;63.72;101251.38;2100788;27;45267;-64
2021/11/22 02:23:24;;;;;;;;;6.75;6.50;;;;;8.95;63.59;101257.56;2096715;27;48015;-65
2021/11/22 02:24:24;;;;;;;;;5.75;5.75;;;;;8.94;63.72;101266.41;2097902;27;47282;-64
2021/11/22 02:25:27;;;;;;;;;8.67;8.67;;;;;8.94;63.75;101263.75;2099925;28;48128;-65
2021/11/22 02:26:27;;;;;;;;;10.00;10.00;;;;;8.94;63.49;101267.28;2092482;27;47673;-64
2021/11/22 02:27:28;;;;;;;;;5.67;5.67;;;;;8.92;63.61;101261.13;2085274;28;45935;-65
2021/11/22 02:28:28;;;;;;;;;7.33;6.67;;;;;8.92;63.60;101257.59;2098724;28;46193;-65
2021/11/22 02:29:29;;;;;;;;;7.00;7.00;;;;;8.91;63.64;101256.72;2095091;27;48166;-65
2021/11/22 02:30:37;;;;;;;;;5.67;5.00;;;;;8.91;63.64;101264.66;2103651;27;45561;-65
2021/11/22 02:31:38;;;;;;;;;9.75;8.75;;;;;8.92;63.50;101265.53;2106777;27;47346;-65
2021/11/22 02:32:40;;;;;;;;;6.33;6.33;;;;;8.91;63.53;101261.13;2088313;28;47456;-65
2021/11/22 02:33:41;;;;;;;;;6.50;6.50;;;;;8.90;63.67;101257.63;2091600;27;48175;-65
2021/11/22 02:34:42;;;;;;;;;7.33;6.00;;;;;8.90;63.95;101259.38;2073118;28;46361;-65
2021/11/22 02:35:52;;;;;;;;;5.33;5.33;;;;;8.88;63.48;101259.38;2079140;28;46270;-65
2021/11/22 02:36:52;;;;;;;;;5.50;5.50;;;;;8.88;63.45;101258.50;2094958;28;47207;-63
2021/11/22 02:37:53;;;;;;;;;7.50;7.50;;;;;8.87;63.50;101265.56;2096648;28;47878;-65
2021/11/22 02:38:54;;;;;;;;;9.50;9.00;;;;;8.86;63.62;101258.50;2088307;27;47028;-64
2021/11/22 02:39:54;;;;;;;;;8.33;6.33;;;;;8.86;63.66;101258.50;2095953;27;45280;-65
2021/11/22 02:40:56;;;;;;;;;7.67;7.67;;;;;8.86;63.52;101255.84;2108231;27;46666;-65
2021/11/22 02:41:57;;;;;;;;;6.75;6.00;;;;;8.86;63.59;101263.78;2092163;28;45338;-64
2021/11/22 02:42:58;;;;;;;;;6.67;6.67;;;;;8.86;63.41;101266.44;2100116;27;47523;-64
2021/11/22 02:43:58;;;;;;;;;6.00;6.00;;;;;8.86;63.59;101269.09;2098031;27;46721;-66
2021/11/22 02:44:59;;;;;;;;;12.00;8.33;;;;;8.87;63.34;101264.66;2095074;27;46099;-66
2021/11/22 02:46:00;;;;;;;;;7.33;6.00;;;;;8.86;63.65;101261.16;2094382;28;48382;-63
2021/11/22 02:47:00;;;;;;;;;9.00;8.33;;;;;8.87;63.70;101264.66;2092189;28;46604;-65
2021/11/22 02:48:01;;;;;;;;;8.75;6.00;;;;;8.87;63.70;101264.66;2096906;28;45471;-64
2021/11/22 02:49:02;;;;;;;;;7.00;4.67;;;;;8.87;63.57;101265.56;2092983;28;46490;-64
2021/11/22 02:50:04;;;;;;;;;7.25;6.75;;;;;8.86;63.52;101258.50;2093954;28;48209;-64
2021/11/22 02:51:06;;;;;;;;;6.25;6.25;;;;;8.85;63.43;101268.22;2096260;28;48496;-64
2021/11/22 02:52:06;;;;;;;;;5.75;5.25;;;;;8.84;63.35;101261.16;2095016;28;47201;-65
2021/11/22 02:53:07;;;;;;;;;8.00;6.33;;;;;8.85;63.41;101268.22;2094222;28;46182;-64
2021/11/22 02:54:07;;;;;;;;;13.25;9.75;;;;;8.84;63.36;101268.22;2088518;28;45479;-64
2021/11/22 02:55:11;;;;;;;;;7.75;7.75;;;;;8.84;63.47;101261.16;2084052;28;46769;-64
2021/11/22 02:56:11;;;;;;;;;5.50;5.50;;;;;8.82;63.45;101268.22;2086527;28;48367;-65
2021/11/22 02:57:14;;;;;;;;;6.00;6.00;;;;;8.83;63.36;101271.75;2087459;28;47741;-64
2021/11/22 02:58:14;;;;;;;;;5.25;5.25;;;;;8.82;63.16;101272.66;2092435;28;47654;-64
2021/11/22 02:59:15;;;;;;;;;10.00;8.67;;;;;8.82;63.40;101270.00;2097034;28;46276;-64
2021/11/22 03:00:25;;;;;;;;;8.00;6.75;;;;;8.81;63.37;101269.13;2094725;28;48841;-64
2021/11/22 03:01:26;;;;;;;;;8.50;8.50;;;;;8.80;63.72;101267.38;2091878;28;47469;-64
2021/11/22 03:02:26;;;;;;;;;9.50;7.00;;;;;8.80;63.41;101267.38;2092524;28;47106;-65
2021/11/22 03:03:29;;;;;;;;;11.00;10.00;;;;;8.79;63.33;101268.25;2091885;28;47156;-65
2021/11/22 03:04:37;;;;;;;;;10.60;10.40;;;;;8.79;63.45;101270.91;2088693;28;47243;-65
2021/11/22 03:05:38;;;;;;;;;8.75;8.50;;;;;8.79;63.50;101268.25;2076231;28;47936;-65
2021/11/22 03:06:38;;;;;;;;;11.25;10.00;;;;;8.78;63.40;101268.28;2085836;28;48659;-64
2021/11/22 03:07:39;;;;;;;;;9.67;7.00;;;;;8.78;63.52;101269.16;2093706;28;48570;-64
2021/11/22 03:08:43;;;;;;;;;10.00;9.00;;;;;8.78;63.52;101273.56;2091316;28;47128;-64
2021/11/22 03:09:43;;;;;;;;;10.00;10.00;;;;;8.77;63.49;101274.47;2078142;28;45541;-64
2021/11/22 03:10:44;;;;;;;;;5.67;5.67;;;;;8.76;63.34;101281.47;2081589;28;48152;-63
2021/11/22 03:11:44;;;;;;;;;7.00;7.00;;;;;8.76;62.99;101278.84;2082544;28;48327;-64
2021/11/22 03:12:45;;;;;;;;;9.67;9.67;;;;;8.76;63.42;101285.91;2091434;28;46150;-64
2021/11/22 03:13:48;;;;;;;;;9.50;9.50;;;;;8.74;63.43;101283.25;2089896;28;47264;-64
2021/11/22 03:14:49;;;;;;;;;9.50;9.50;;;;;8.72;63.38;101274.47;2087105;28;47375;-63
2021/11/22 03:15:50;;;;;;;;;9.00;9.00;;;;;8.72;63.30;101278.88;2094986;28;45533;-63
2021/11/22 03:16:51;;;;;;;;;9.00;6.75;;;;;8.70;63.38;101285.94;2089753;28;45438;-63
2021/11/22 03:17:52;;;;;;;;;9.80;9.60;;;;;8.68;63.36;101279.78;2083644;28;48192;-64
2021/11/22 03:18:53;;;;;;;;;10.25;8.50;;;;;8.68;63.63;101285.94;2087143;28;48164;-64
2021/11/22 03:19:53;;;;;;;;;8.25;6.00;;;;;8.67;63.35;101281.56;2080759;28;48053;-64
2021/11/22 03:20:54;;;;;;;;;7.00;6.67;;;;;8.68;63.49;101277.13;2082397;28;47038;-64
2021/11/22 03:21:55;;;;;;;;;10.00;8.67;;;;;8.66;63.46;101282.44;2081915;28;48113;-64
2021/11/22 03:22:55;;;;;;;;;10.75;10.75;;;;;8.65;63.41;101280.69;2087910;28;47696;-65
2021/11/22 03:23:56;;;;;;;;;11.00;9.75;;;;;8.65;63.30;101282.44;2091358;28;47285;-65
2021/11/22 03:24:56;;;;;;;;;7.00;7.00;;;;;8.63;63.59;101279.78;2074150;28;45544;-64
2021/11/22 03:25:57;;;;;;;;;8.00;8.00;;;;;8.64;63.50;101286.88;2078946;28;47014;-64
2021/11/22 03:26:59;;;;;;;;;9.75;9.75;;;;;8.64;63.61;101289.50;2082676;28;47422;-64
2021/11/22 03:28:00;;;;;;;;;6.25;6.25;;;;;8.64;63.61;101289.50;2091632;28;47915;-64
2021/11/22 03:29:01;;;;;;;;;6.33;6.33;;;;;8.63;63.50;101286.84;2090264;28;47767;-64
2021/11/22 03:30:03;;;;;;;;;10.33;9.00;;;;;8.63;63.35;101284.19;2087923;28;46203;-64
2021/11/22 03:31:04;;;;;;;;;9.80;7.20;;;;;8.62;63.60;101291.25;2088682;28;47955;-65
2021/11/22 03:32:05;;;;;;;;;9.75;7.75;;;;;8.62;63.51;101291.25;2091390;28;48107;-65
2021/11/22 03:33:06;;;;;;;;;10.25;10.00;;;;;8.62;63.66;101291.25;2091631;28;45760;-65
2021/11/22 03:34:10;;;;;;;;;7.00;6.25;;;;;8.62;63.37;101291.25;2093309;28;45273;-65
2021/11/22 03:35:12;;;;;;;;;10.00;9.50;;;;;8.60;63.53;101287.75;2088634;28;45724;-65
2021/11/22 03:36:13;;;;;;;;;12.00;10.00;;;;;8.59;63.48;101293.94;2084409;28;45492;-65
2021/11/22 03:37:15;;;;;;;;;7.75;7.75;;;;;8.58;63.59;101297.47;2082471;28;47205;-67
2021/11/22 03:38:16;;;;;;;;;10.25;9.50;;;;;8.57;63.32;101290.41;2075453;28;45437;-66
2021/11/22 03:39:25;;;;;;;;;9.50;9.25;;;;;8.57;63.37;101295.69;2074781;28;47281;-66
2021/11/22 03:40:26;;;;;;;;;9.00;8.50;;;;;8.56;63.70;101301.88;2084536;28;46884;-66
2021/11/22 03:41:29;;;;;;;;;7.60;7.00;;;;;8.55;63.53;101295.72;2092405;28;45414;-65
2021/11/22 03:42:37;;;;;;;;;9.20;8.80;;;;;8.54;63.43;101291.31;2087349;28;47283;-65
2021/11/22 03:44:47;;;;;;;;;10.20;8.20;;;;;8.55;63.59;101301.00;2092361;28;47133;-67
2021/11/22 03:45:48;;;;;;;;;10.75;8.75;;;;;8.55;64.04;101302.78;2093243;27;47755;-66
2021/11/22 03:46:51;;;;;;;;;13.00;10.00;;;;;8.55;63.70;101301.00;2091631;28;48233;-63
2021/11/22 03:47:52;;;;;;;;;9.80;7.40;;;;;8.54;63.87;101304.53;2098637;28;47290;-65
2021/11/22 03:48:52;;;;;;;;;10.00;9.50;;;;;8.53;63.71;101294.84;2094506;27;46969;-65
2021/11/22 03:49:53;;;;;;;;;10.75;10.25;;;;;8.54;63.61;101306.31;2097922;28;47372;-65
2021/11/22 03:50:54;;;;;;;;;12.33;11.00;;;;;8.52;63.53;101311.59;2099940;27;45630;-65
2021/11/22 03:51:54;;;;;;;;;10.00;9.00;;;;;8.52;63.45;101306.31;2096034;27;47157;-66
2021/11/22 03:52:55;;;;;;;;;7.25;6.00;;;;;8.50;63.54;101308.06;2098817;27;47971;-65
2021/11/22 03:53:55;;;;;;;;;9.50;9.50;;;;;8.49;63.39;101301.00;2095383;28;45355;-65
2021/11/22 03:54:56;;;;;;;;;9.33;8.67;;;;;8.48;63.66;101309.84;2096364;27;47553;-65
2021/11/22 03:55:57;;;;;;;;;10.00;7.00;;;;;8.47;63.67;101308.06;2089713;28;46912;-66
2021/11/22 03:56:58;;;;;;;;;10.25;10.25;;;;;8.47;63.63;101307.19;2085731;28;47163;-65
2021/11/22 03:57:58;;;;;;;;;8.00;8.00;;;;;8.47;63.69;101308.06;2098404;27;48353;-65
2021/11/22 03:58:59;;;;;;;;;11.00;11.00;;;;;8.46;63.38;101305.44;2093526;28;45764;-65
2021/11/22 04:00:00;;;;;;;;;10.00;10.00;;;;;8.46;63.55;101316.91;2086349;28;47104;-65
2021/11/22 04:01:01;;;;;;;;;5.75;5.75;;;;;8.45;63.60;101312.50;2094913;28;45681;-65
2021/11/22 04:02:02;;;;;;;;;9.00;9.00;;;;;8.44;63.49;101312.50;2095211;28;48070;-66
2021/11/22 04:03:03;;;;;;;;;7.75;7.75;;;;;8.44;63.60;101310.75;2098866;27;45656;-63
2021/11/22 04:04:04;;;;;;;;;9.50;9.50;;;;;8.44;63.77;101312.50;2096679;28;47187;-64
2021/11/22 04:05:04;;;;;;;;;9.00;8.50;;;;;8.44;63.84;101316.03;2093348;28;47298;-64
2021/11/22 04:06:05;;;;;;;;;12.00;12.00;;;;;8.44;63.29;101318.69;2100136;27;47039;-64
2021/11/22 04:07:05;;;;;;;;;12.00;9.00;;;;;8.44;63.85;101320.44;2093391;28;48036;-64
2021/11/22 04:08:08;;;;;;;;;11.25;10.75;;;;;8.43;63.74;101316.03;2085359;28;47267;-63
2021/11/22 04:09:08;;;;;;;;;10.00;9.50;;;;;8.43;63.71;101319.56;2092019;27;47470;-63
2021/11/22 04:10:09;;;;;;;;;10.67;10.67;;;;;8.43;63.77;101318.69;2093774;28;47366;-63
2021/11/22 04:11:11;;;;;;;;;11.00;10.00;;;;;8.43;63.74;101326.63;2092633;28;47565;-64
2021/11/22 04:12:12;;;;;;;;;9.00;9.00;;;;;8.42;63.65;101320.44;2098308;27;48261;-64
2021/11/22 04:13:12;;;;;;;;;12.67;11.67;;;;;8.42;63.51;101325.75;2094629;28;48094;-64
2021/11/22 04:14:13;;;;;;;;;11.00;11.00;;;;;8.42;63.66;101330.16;2100398;27;45300;-63
2021/11/22 04:15:13;;;;;;;;;13.67;12.67;;;;;8.41;63.76;101323.97;2098173;27;47275;-63
2021/11/22 04:16:14;;;;;;;;;11.50;10.50;;;;;8.41;63.68;101331.03;2096661;27;47736;-64
2021/11/22 04:17:16;;;;;;;;;7.25;7.25;;;;;8.40;63.65;101332.81;2095274;28;47546;-64
2021/11/22 04:18:16;;;;;;;;;9.25;8.75;;;;;8.41;63.67;101331.03;2095376;28;47346;-64
2021/11/22 04:19:17;;;;;;;;;10.00;6.33;;;;;8.40;63.88;101329.28;2080947;28;46857;-65
2021/11/22 04:20:17;;;;;;;;;10.00;9.33;;;;;8.40;63.76;101339.88;2082916;28;45695;-64
2021/11/22 04:21:22;;;;;;;;;12.00;11.50;;;;;8.39;63.70;101341.63;2097694;28;47214;-64
2021/11/22 04:22:23;;;;;;;;;8.50;8.50;;;;;8.40;63.57;101343.38;2098941;28;47290;-64
2021/11/22 04:23:24;;;;;;;;;11.00;10.00;;;;;8.40;63.60;101346.03;2098286;28;45821;-64
2021/11/22 04:24:24;;;;;;;;;10.40;10.40;;;;;8.40;63.68;101345.16;2089753;28;48136;-64
2021/11/22 04:25:25;;;;;;;;;11.25;11.00;;;;;8.39;63.66;101340.75;2087866;28;48230;-64
2021/11/22 04:26:26;;;;;;;;;12.75;10.00;;;;;8.39;63.81;101346.03;2096215;28;48308;-65
2021/11/22 04:27:26;;;;;;;;;10.50;10.25;;;;;8.39;63.63;101343.41;2105970;27;46342;-64
2021/11/22 04:28:27;;;;;;;;;9.50;9.00;;;;;8.38;63.86;101355.69;2095644;28;45371;-64
2021/11/22 04:29:27;;;;;;;;;12.00;9.00;;;;;8.38;63.82;101346.88;2095091;28;47337;-64
2021/11/22 04:30:30;;;;;;;;;11.50;9.25;;;;;8.37;63.63;101342.50;2079219;28;47078;-64
2021/11/22 04:31:31;;;;;;;;;13.40;11.80;;;;;8.37;63.74;101347.78;2066766;28;47197;-65
2021/11/22 04:32:31;;;;;;;;;12.50;10.25;;;;;8.37;63.73;101350.41;2093003;28;47575;-64
2021/11/22 04:33:32;;;;;;;;;10.00;9.00;;;;;8.36;63.80;101354.84;2080925;28;47150;-63
2021/11/22 04:34:34;;;;;;;;;11.00;10.00;;;;;8.38;63.84;101357.47;2082198;28;45673;-63
2021/11/22 04:35:35;;;;;;;;;10.60;10.60;;;;;8.37;63.68;101353.94;2093468;28;47276;-64
2021/11/22 04:36:35;;;;;;;;;7.50;7.50;;;;;8.38;64.08;101360.13;2086057;27;45476;-63
2021/11/22 04:37:36;;;;;;;;;8.33;8.33;;;;;8.36;63.73;101354.84;2098386;28;47397;-67
2021/11/22 04:38:37;;;;;;;;;11.00;11.00;;;;;8.35;63.59;101349.56;2094961;28;47222;-64
2021/11/22 04:39:38;;;;;;;;;8.60;8.60;;;;;8.35;63.62;101362.78;2094770;27;48408;-64
2021/11/22 04:40:38;;;;;;;;;11.00;9.33;;;;;8.34;63.87;101353.97;2099087;27;45574;-64
2021/11/22 04:41:39;;;;;;;;;12.75;10.25;;;;;8.32;63.73;101361.00;2102420;27;47045;-65
2021/11/22 04:42:45;;;;;;;;;13.00;12.00;;;;;8.32;63.73;101358.34;2102328;27;46226;-65
2021/11/22 04:43:45;;;;;;;;;11.25;10.00;;;;;8.32;63.61;101361.00;2098274;27;47401;-64
2021/11/22 04:44:46;;;;;;;;;12.75;12.25;;;;;8.32;63.87;101361.00;2094686;27;48034;-64
2021/11/22 04:45:46;;;;;;;;;12.75;12.75;;;;;8.31;63.83;101361.88;2098099;27;47121;-64
2021/11/22 04:46:47;;;;;;;;;12.25;11.75;;;;;8.32;63.69;101368.91;2096236;28;47241;-64
2021/11/22 04:47:49;;;;;;;;;10.50;10.50;;;;;8.32;63.60;101371.56;2094576;27;48218;-67